createdAt,value
2019-02-06T00:02:15.593Z,27.93
2019-02-06T00:04:42.518Z,29.73
2019-02-06T00:07:09.512Z,26.00
2019-02-06T00:09:36.531Z,29.07
2019-02-06T00:12:03.788Z,23.13
2019-02-06T00:14:30.606Z,29.03
2019-02-06T00:16:57.983Z,28.53
2019-02-06T00:19:24.916Z,26.47
2019-02-06T00:21:51.782Z,25.40
2019-02-06T00:24:18.667Z,26.07
2019-02-06T00:26:45.635Z,27.50
2019-02-06T00:29:12.671Z,26.87
2019-02-06T00:31:39.511Z,28.50
2019-02-06T00:34:06.241Z,26.40
2019-02-06T00:36:33.497Z,26.80
2019-02-06T00:39:00.547Z,30.83
2019-02-06T00:41:27.396Z,30.33
2019-02-06T00:43:54.111Z,26.50
2019-02-06T00:46:21.086Z,27.47
2019-02-06T00:48:47.975Z,29.33
2019-02-06T00:51:14.834Z,34.27
2019-02-06T00:53:41.695Z,31.37
2019-02-06T00:56:08.574Z,28.83
2019-02-06T00:58:35.381Z,27.77
2019-02-06T01:01:02.683Z,26.67
2019-02-06T01:03:29.538Z,29.60
2019-02-06T01:05:56.491Z,29.33
2019-02-06T01:08:23.308Z,32.20
2019-02-06T01:10:50.128Z,31.47
2019-02-06T01:13:17.535Z,28.70
2019-02-06T01:15:44.514Z,31.20
2019-02-06T01:18:11.365Z,29.63
2019-02-06T01:20:38.203Z,34.17
2019-02-06T01:23:04.933Z,32.90
2019-02-06T01:25:31.954Z,32.20
2019-02-06T01:27:58.963Z,32.30
2019-02-06T01:30:26.675Z,28.70
2019-02-06T01:32:53.978Z,30.47
2019-02-06T01:35:20.895Z,27.63
2019-02-06T01:37:47.765Z,26.93
2019-02-06T01:40:17.419Z,30.13
2019-02-06T01:42:44.607Z,31.10
2019-02-06T01:45:13.087Z,32.53
2019-02-06T01:47:40.075Z,31.03
2019-02-06T01:50:09.280Z,30.77
2019-02-06T01:52:36.410Z,31.03
2019-02-06T01:55:04.348Z,35.47
2019-02-06T01:57:31.359Z,32.63
2019-02-06T01:59:58.180Z,31.83
2019-02-06T02:02:25.252Z,31.00
2019-02-06T02:04:52.095Z,36.80
2019-02-06T02:07:18.987Z,33.33
2019-02-06T02:09:46.343Z,34.87
2019-02-06T02:12:13.319Z,33.20
2019-02-06T02:14:40.191Z,30.03
2019-02-06T02:17:07.023Z,36.87
2019-02-06T02:19:33.887Z,32.43
2019-02-06T02:22:00.858Z,35.40
2019-02-06T02:24:27.830Z,36.20
2019-02-06T02:26:54.703Z,37.53
2019-02-06T02:29:22.047Z,38.20
2019-02-06T02:31:49.443Z,37.63
2019-02-06T02:34:16.174Z,30.80
2019-02-06T02:36:43.024Z,36.17
2019-02-06T02:39:09.728Z,33.97
2019-02-06T02:41:36.435Z,31.87
2019-02-06T02:44:03.755Z,41.60
2019-02-06T02:46:30.585Z,36.27
2019-02-06T02:48:57.310Z,40.23
2019-02-06T02:51:24.083Z,37.03
2019-02-06T02:53:50.836Z,37.00
2019-02-06T02:56:17.829Z,34.07
2019-02-06T02:58:44.535Z,38.43
2019-02-06T03:01:28.320Z,34.97
2019-02-06T03:04:14.695Z,32.47
2019-02-06T03:06:41.519Z,32.90
2019-02-06T03:09:10.935Z,34.07
2019-02-06T03:11:37.774Z,38.30
2019-02-06T03:14:04.735Z,42.60
2019-02-06T03:16:31.740Z,35.97
2019-02-06T03:18:58.539Z,36.77
2019-02-06T03:21:25.299Z,37.90
2019-02-06T03:23:52.148Z,34.97
2019-02-06T03:26:19.172Z,36.17
2019-02-06T03:28:46.111Z,30.97
2019-02-06T03:31:12.956Z,35.50
2019-02-06T03:33:39.842Z,34.60
2019-02-06T03:36:06.991Z,34.50
2019-02-06T03:38:33.851Z,31.67
2019-02-06T03:41:00.984Z,37.53
2019-02-06T03:43:27.847Z,34.07
2019-02-06T03:45:54.563Z,31.20
2019-02-06T03:48:21.486Z,35.63
2019-02-06T03:50:48.512Z,35.77
2019-02-06T03:53:15.375Z,47.30
2019-02-06T03:55:42.113Z,45.80
2019-02-06T03:58:09.063Z,47.83
2019-02-06T04:00:36.068Z,41.70
2019-02-06T04:03:03.199Z,40.93
2019-02-06T04:05:30.063Z,37.50
2019-02-06T04:07:56.901Z,39.30
2019-02-06T04:10:23.771Z,35.77
2019-02-06T04:12:50.740Z,39.57
2019-02-06T04:15:17.704Z,41.73
2019-02-06T04:17:44.450Z,31.77
2019-02-06T04:20:11.500Z,36.87
2019-02-06T04:22:38.495Z,36.50
2019-02-06T04:25:05.987Z,36.30
2019-02-06T04:27:32.995Z,39.00
2019-02-06T04:29:59.907Z,33.93
2019-02-06T04:32:27.253Z,32.07
2019-02-06T04:34:54.104Z,36.90
2019-02-06T04:37:20.983Z,37.50
2019-02-06T04:39:47.847Z,38.17
2019-02-06T04:42:14.583Z,39.87
2019-02-06T04:44:41.447Z,41.90
2019-02-06T04:47:08.287Z,36.60
2019-02-06T04:49:35.219Z,36.77
2019-02-06T04:52:04.124Z,39.03
2019-02-06T04:54:30.876Z,33.93
2019-02-06T04:56:57.736Z,35.23
2019-02-06T04:59:24.635Z,34.17
2019-02-06T05:01:51.385Z,35.90
2019-02-06T05:04:18.235Z,35.97
2019-02-06T05:06:45.198Z,32.17
2019-02-06T05:09:12.190Z,37.50
2019-02-06T05:11:39.075Z,35.07
2019-02-06T05:14:06.030Z,38.80
2019-02-06T05:16:33.019Z,39.23
2019-02-06T05:18:59.796Z,35.30
2019-02-06T05:21:26.779Z,35.37
2019-02-06T05:23:53.522Z,33.03
2019-02-06T05:26:20.395Z,35.30
2019-02-06T05:28:47.163Z,35.90
2019-02-06T05:31:14.028Z,35.30
2019-02-06T05:33:40.795Z,36.03
2019-02-06T05:36:07.772Z,34.43
2019-02-06T05:38:34.519Z,34.83
2019-02-06T05:41:01.523Z,38.43
2019-02-06T05:43:28.305Z,33.33
2019-02-06T05:45:55.188Z,34.13
2019-02-06T05:48:21.985Z,34.27
2019-02-06T05:50:49.319Z,38.77
2019-02-06T05:53:16.201Z,34.27
2019-02-06T05:55:43.086Z,33.80
2019-02-06T05:58:09.943Z,38.47
2019-02-06T06:00:43.006Z,35.23
2019-02-06T06:03:10.160Z,36.00
2019-02-06T06:05:37.107Z,33.73
2019-02-06T06:08:04.569Z,34.90
2019-02-06T06:10:31.407Z,32.47
2019-02-06T06:12:58.267Z,38.90
2019-02-06T06:15:27.891Z,36.83
2019-02-06T06:17:54.857Z,33.13
2019-02-06T06:20:21.840Z,38.10
2019-02-06T06:22:48.867Z,31.83
2019-02-06T06:25:17.310Z,37.38
2019-02-06T06:27:44.771Z,39.03
2019-02-06T06:30:13.763Z,35.50
2019-02-06T06:32:40.735Z,37.67
2019-02-06T06:35:08.719Z,35.47
2019-02-06T06:41:16.420Z,34.83
2019-02-06T06:43:43.171Z,42.00
2019-02-06T06:46:10.323Z,38.37
2019-02-06T06:48:37.235Z,39.87
2019-02-06T06:51:04.223Z,35.23
2019-02-06T06:53:30.932Z,36.90
2019-02-06T06:55:57.791Z,35.50
2019-02-06T07:02:08.779Z,37.17
2019-02-06T07:04:35.907Z,36.43
2019-02-06T07:07:02.884Z,37.00
2019-02-06T07:16:39.400Z,34.07
2019-02-06T07:22:34.962Z,39.13
2019-02-06T07:25:02.008Z,34.37
2019-02-06T07:27:28.762Z,37.90
2019-02-06T07:29:55.955Z,40.37
2019-02-06T07:32:22.718Z,37.37
2019-02-06T07:34:49.703Z,35.13
2019-02-06T07:37:16.442Z,34.60
2019-02-06T07:39:43.401Z,33.63
2019-02-06T07:42:10.135Z,36.37
2019-02-06T07:44:36.900Z,38.03
2019-02-06T07:47:03.893Z,86.13
2019-02-06T07:49:30.943Z,89.47
2019-02-06T07:51:57.779Z,94.40
2019-02-06T07:58:06.011Z,62.07
2019-02-06T08:00:32.750Z,58.43
2019-02-06T08:02:59.795Z,73.00
2019-02-06T08:05:26.775Z,103.87
2019-02-06T08:07:54.133Z,65.53
2019-02-06T08:10:23.510Z,123.10
2019-02-06T08:12:50.338Z,188.87
2019-02-06T08:15:17.507Z,117.30
2019-02-06T08:17:44.460Z,160.87
2019-02-06T08:20:13.833Z,201.43
2019-02-06T08:22:40.719Z,208.93
2019-02-06T08:25:09.290Z,89.37
2019-02-06T08:27:36.163Z,154.17
2019-02-06T08:30:05.610Z,123.30
2019-02-06T08:32:32.577Z,76.97
2019-02-06T08:34:59.598Z,44.40
2019-02-06T08:37:26.463Z,39.83
2019-02-06T08:39:53.171Z,71.70
2019-02-06T08:42:19.912Z,161.10
2019-02-06T08:44:46.643Z,101.17
2019-02-06T08:50:18.325Z,103.50
2019-02-06T08:52:45.934Z,69.77
2019-02-06T08:55:16.043Z,85.53
2019-02-06T08:57:42.981Z,116.60
2019-02-06T09:03:38.955Z,70.57
2019-02-06T09:06:05.899Z,96.27
2019-02-06T09:08:32.718Z,51.17
2019-02-06T09:10:59.563Z,41.30
2019-02-06T09:16:58.699Z,74.20
2019-02-06T09:19:25.537Z,61.07
2019-02-06T09:21:52.515Z,86.33
2019-02-06T09:24:19.355Z,45.77
2019-02-06T09:26:46.219Z,48.93
2019-02-06T09:29:13.167Z,44.20
2019-02-06T09:31:40.077Z,49.33
2019-02-06T09:34:09.605Z,63.57
2019-02-06T09:36:35.605Z,43.10
2019-02-06T09:39:11.809Z,96.60
2019-02-06T09:48:44.522Z,60.30
2019-02-06T09:51:11.356Z,48.33
2019-02-06T09:53:38.231Z,48.17
2019-02-06T09:56:05.575Z,38.97
2019-02-06T09:58:32.435Z,39.50
2019-02-06T10:00:59.273Z,42.30
2019-02-06T10:03:26.107Z,60.40
2019-02-06T10:05:52.950Z,37.43
2019-02-06T10:08:19.650Z,39.00
2019-02-06T10:10:46.655Z,39.13
2019-02-06T10:13:16.348Z,37.27
2019-02-06T10:15:42.255Z,38.03
2019-02-06T10:18:09.198Z,37.10
2019-02-06T10:20:38.806Z,38.80
2019-02-06T10:23:06.943Z,45.50
2019-02-06T10:25:34.265Z,41.33
2019-02-06T10:28:01.432Z,39.53
2019-02-06T10:30:36.311Z,69.20
2019-02-06T10:33:03.548Z,53.13
2019-02-06T10:35:30.375Z,44.87
2019-02-06T10:37:57.211Z,44.03
2019-02-06T10:40:24.327Z,50.27
2019-02-06T10:42:51.255Z,41.30
2019-02-06T10:45:20.936Z,42.20
2019-02-06T10:47:47.607Z,40.63
2019-02-06T10:50:17.586Z,50.03
2019-02-06T10:52:44.404Z,44.20
2019-02-06T10:55:11.675Z,44.87
2019-02-06T10:57:38.602Z,46.13
2019-02-06T11:00:12.219Z,43.47
2019-02-06T11:02:39.447Z,42.73
2019-02-06T11:05:06.843Z,43.27
2019-02-06T11:07:33.833Z,44.50
2019-02-06T11:10:00.586Z,50.73
2019-02-06T11:12:27.462Z,46.00
2019-02-06T11:14:54.834Z,44.47
2019-02-06T11:17:22.095Z,37.83
2019-02-06T11:19:48.975Z,41.20
2019-02-06T11:22:15.834Z,38.37
2019-02-06T11:24:43.071Z,38.33
2019-02-06T11:27:09.937Z,40.73
2019-02-06T11:29:36.818Z,39.67
2019-02-06T11:32:03.648Z,39.50
2019-02-06T11:34:30.356Z,38.50
2019-02-06T11:36:57.235Z,40.30
2019-02-06T11:39:24.195Z,71.97
2019-02-06T11:41:51.043Z,43.70
2019-02-06T11:44:18.383Z,52.77
2019-02-06T11:46:45.238Z,60.93
2019-02-06T11:49:12.800Z,43.37
2019-02-06T11:51:39.775Z,53.87
2019-02-06T11:54:06.766Z,56.87
2019-02-06T11:56:33.531Z,67.83
2019-02-06T11:59:00.411Z,59.27
2019-02-06T12:01:30.487Z,49.97
2019-02-06T12:03:57.232Z,33.87
2019-02-06T12:06:24.079Z,59.07
2019-02-06T12:08:51.043Z,74.20
2019-02-06T12:11:18.033Z,56.20
2019-02-06T12:13:45.006Z,38.63
2019-02-06T12:16:12.060Z,51.50
2019-02-06T12:18:39.079Z,53.53
2019-02-06T12:21:06.437Z,37.17
2019-02-06T12:23:36.007Z,42.57
2019-02-06T12:26:03.770Z,37.57
2019-02-06T12:28:30.742Z,38.53
2019-02-06T12:30:57.618Z,53.37
2019-02-06T12:33:24.391Z,60.63
2019-02-06T12:35:51.111Z,38.33
2019-02-06T12:38:17.842Z,57.70
2019-02-06T12:40:45.396Z,81.93
2019-02-06T12:43:12.256Z,62.73
2019-02-06T12:45:39.115Z,62.50
2019-02-06T12:48:06.284Z,50.70
2019-02-06T12:50:33.275Z,53.13
2019-02-06T12:53:00.427Z,46.13
2019-02-06T12:55:29.673Z,55.03
2019-02-06T12:57:56.711Z,48.63
2019-02-06T13:00:25.753Z,47.50
2019-02-06T13:02:56.424Z,46.60
2019-02-06T13:05:22.643Z,42.33
2019-02-06T13:07:49.743Z,50.30
2019-02-06T13:10:16.703Z,45.03
2019-02-06T13:12:43.665Z,40.37
2019-02-06T13:15:11.579Z,38.97
2019-02-06T13:17:38.574Z,39.50
2019-02-06T13:20:10.679Z,40.23
2019-02-06T13:22:37.545Z,43.60
2019-02-06T13:25:05.216Z,35.83
2019-02-06T13:27:32.075Z,36.27
2019-02-06T13:29:58.828Z,37.17
2019-02-06T13:32:25.691Z,43.60
2019-02-06T13:34:52.584Z,36.67
2019-02-06T13:37:19.415Z,36.13
2019-02-06T13:39:46.282Z,43.93
2019-02-06T13:42:13.131Z,44.27
2019-02-06T13:44:41.602Z,43.33
2019-02-06T13:47:08.621Z,39.73
2019-02-06T13:49:35.779Z,41.47
2019-02-06T13:52:03.347Z,37.53
2019-02-06T13:54:30.092Z,40.63
2019-02-06T13:57:00.316Z,43.33
2019-02-06T13:59:27.176Z,42.67
2019-02-06T14:01:54.163Z,44.00
2019-02-06T14:04:21.118Z,44.60
2019-02-06T14:06:48.131Z,41.63
2019-02-06T14:09:22.861Z,46.17
2019-02-06T14:11:46.261Z,45.97
2019-02-06T14:14:13.499Z,42.00
2019-02-06T14:16:40.499Z,40.97
2019-02-06T14:19:08.849Z,45.57
2019-02-06T14:21:35.813Z,49.47
2019-02-06T14:24:33.424Z,44.50
2019-02-06T14:27:08.360Z,43.83
2019-02-06T14:30:22.722Z,43.87
2019-02-06T14:33:14.871Z,42.90
2019-02-06T14:36:19.113Z,44.23
2019-02-06T14:38:56.013Z,45.40
2019-02-06T14:41:53.294Z,44.70
2019-02-06T14:44:39.147Z,47.33
2019-02-06T14:47:19.571Z,43.73
2019-02-06T14:49:55.531Z,43.80
2019-02-06T14:52:45.927Z,48.97
2019-02-06T14:55:49.431Z,44.53
2019-02-06T14:58:55.807Z,42.50
2019-02-06T15:02:26.196Z,44.63
2019-02-06T15:05:44.023Z,45.40
2019-02-06T15:08:28.423Z,46.53
2019-02-06T15:11:27.665Z,48.17
2019-02-06T15:14:39.992Z,46.10
2019-02-06T15:17:37.516Z,45.37
2019-02-06T15:20:31.335Z,50.30
2019-02-06T15:23:36.489Z,48.97
2019-02-06T15:26:25.044Z,48.83
2019-02-06T15:29:32.767Z,52.10
2019-02-06T15:32:38.832Z,50.90
2019-02-06T15:35:22.023Z,51.50
2019-02-06T15:38:28.099Z,53.23
2019-02-06T15:41:07.850Z,68.10
2019-02-06T15:43:56.650Z,100.87
2019-02-06T15:46:55.563Z,81.70
2019-02-06T15:49:40.604Z,70.23
2019-02-06T15:52:36.707Z,70.53
2019-02-06T15:55:58.204Z,69.30
2019-02-06T15:59:22.263Z,86.00
2019-02-06T16:02:30.315Z,89.57
2019-02-06T16:05:56.347Z,57.43
2019-02-06T16:08:42.719Z,54.50
2019-02-06T16:11:49.411Z,67.73
2019-02-06T16:14:48.822Z,89.80
2019-02-06T16:18:08.670Z,81.87
2019-02-06T16:21:22.115Z,77.77
2019-02-06T16:24:28.175Z,107.87
2019-02-06T16:27:36.246Z,83.13
2019-02-06T16:30:35.087Z,82.27
2019-02-06T16:33:41.588Z,64.70
2019-02-06T16:36:31.433Z,57.87
2019-02-06T16:39:27.862Z,52.67
2019-02-06T16:42:26.246Z,54.13
2019-02-06T16:45:34.337Z,52.00
2019-02-06T16:48:41.251Z,48.00
2019-02-06T16:51:28.464Z,48.90
2019-02-06T16:54:15.471Z,53.33
2019-02-06T16:57:20.079Z,53.77
2019-02-06T17:00:17.447Z,57.83
2019-02-06T17:03:09.399Z,55.77
2019-02-06T17:05:58.770Z,56.80
2019-02-06T17:09:23.283Z,53.67
2019-02-06T17:12:15.329Z,50.93
2019-02-06T17:15:07.555Z,57.10
2019-02-06T17:17:50.363Z,49.63
2019-02-06T17:20:49.420Z,55.93
2019-02-06T17:23:51.224Z,56.87
2019-02-06T17:26:34.324Z,50.37
2019-02-06T17:29:16.511Z,49.90
2019-02-06T17:32:29.111Z,52.03
2019-02-06T17:35:51.923Z,46.93
2019-02-06T17:39:05.482Z,50.70
2019-02-06T17:41:46.003Z,52.47
2019-02-06T17:44:50.135Z,55.27
2019-02-06T17:47:45.311Z,45.97
2019-02-06T17:50:42.168Z,52.73
2019-02-06T17:53:33.155Z,57.23
2019-02-06T17:55:59.923Z,55.07
2019-02-06T17:58:31.169Z,53.73
2019-02-06T18:01:17.675Z,55.30
2019-02-06T18:03:51.960Z,52.33
2019-02-06T18:06:18.837Z,55.80
2019-02-06T18:08:56.141Z,61.30
2019-02-06T18:11:14.531Z,54.77
2019-02-06T18:13:41.682Z,53.43
2019-02-06T18:16:08.731Z,58.27
2019-02-06T18:18:35.589Z,54.43
2019-02-06T18:21:02.461Z,53.67
2019-02-06T18:23:29.443Z,58.13
2019-02-06T18:25:56.382Z,58.80
2019-02-06T18:28:23.335Z,55.07
2019-02-06T18:30:50.264Z,50.70
2019-02-06T18:33:18.915Z,54.07
2019-02-06T18:35:46.927Z,55.47
2019-02-06T18:38:13.887Z,53.80
2019-02-06T18:40:42.942Z,51.00
2019-02-06T18:43:10.179Z,56.17
2019-02-06T18:45:37.113Z,57.63
2019-02-06T18:48:06.936Z,54.40
2019-02-06T18:50:35.883Z,58.97
2019-02-06T18:53:04.519Z,58.50
2019-02-06T18:55:31.887Z,50.90
2019-02-06T18:57:58.859Z,56.77
2019-02-06T19:00:28.621Z,82.23
2019-02-06T19:02:55.728Z,71.53
2019-02-06T19:05:25.955Z,65.00
2019-02-06T19:07:52.960Z,55.77
2019-02-06T19:10:21.047Z,56.07
2019-02-06T19:12:50.699Z,55.07
2019-02-06T19:15:17.155Z,56.77
2019-02-06T19:17:44.672Z,54.50
2019-02-06T19:20:12.054Z,54.77
2019-02-06T19:22:39.007Z,61.80
2019-02-06T19:25:06.764Z,59.17
2019-02-06T19:27:33.534Z,49.33
2019-02-06T19:30:00.474Z,52.37
2019-02-06T19:32:27.462Z,52.03
2019-02-06T19:34:54.411Z,51.20
2019-02-06T19:37:21.255Z,49.77
2019-02-06T19:39:48.339Z,53.57
2019-02-06T19:42:15.232Z,51.00
2019-02-06T19:44:42.095Z,47.43
2019-02-06T19:47:08.959Z,53.50
2019-02-06T19:49:37.657Z,46.43
2019-02-06T19:52:04.807Z,44.67
2019-02-06T19:54:31.651Z,46.00
2019-02-06T19:56:58.388Z,49.67
2019-02-06T19:59:25.450Z,51.63
2019-02-06T20:01:52.587Z,51.30
2019-02-06T20:04:19.479Z,49.10
2019-02-06T20:06:46.471Z,44.27
2019-02-06T20:09:14.091Z,53.83
2019-02-06T20:11:41.087Z,51.67
2019-02-06T20:14:08.214Z,50.93
2019-02-06T20:16:35.075Z,50.50
2019-02-06T20:19:04.530Z,50.90
2019-02-06T20:21:31.484Z,43.93
2019-02-06T20:23:58.859Z,47.17
2019-02-06T20:26:25.867Z,48.07
2019-02-06T20:28:52.711Z,52.60
2019-02-06T20:31:19.574Z,45.87
2019-02-06T20:33:46.666Z,47.63
2019-02-06T20:36:13.507Z,44.40
2019-02-06T20:38:40.351Z,43.20
2019-02-06T20:41:07.196Z,44.20
2019-02-06T20:43:34.060Z,45.47
2019-02-06T20:46:01.355Z,38.23
2019-02-06T20:48:28.143Z,41.73
2019-02-06T20:50:54.907Z,45.40
2019-02-06T20:53:21.876Z,46.80
2019-02-06T20:55:48.723Z,48.17
2019-02-06T20:58:15.720Z,44.13
2019-02-06T21:00:42.720Z,49.70
2019-02-06T21:03:09.651Z,45.73
2019-02-06T21:05:36.493Z,42.37
2019-02-06T21:08:04.386Z,47.13
2019-02-06T21:10:31.414Z,43.87
2019-02-06T21:12:58.410Z,45.50
2019-02-06T21:15:25.245Z,47.30
2019-02-06T21:17:52.266Z,43.37
2019-02-06T21:20:20.217Z,43.67
2019-02-06T21:22:47.109Z,49.67
2019-02-06T21:25:15.741Z,48.83
2019-02-06T21:27:43.040Z,44.10
2019-02-06T21:30:14.735Z,44.77
2019-02-06T21:32:42.792Z,40.77
2019-02-06T21:35:10.381Z,42.90
2019-02-06T21:37:37.168Z,46.97
2019-02-06T21:40:06.618Z,44.33
2019-02-06T21:42:35.681Z,45.73
2019-02-06T21:45:02.531Z,45.40
2019-02-06T21:47:31.906Z,44.53
2019-02-06T21:49:58.900Z,45.10
2019-02-06T21:52:25.843Z,40.53
2019-02-06T21:54:52.569Z,46.07
2019-02-06T21:57:19.456Z,47.30
2019-02-06T21:59:46.827Z,49.23
2019-02-06T22:02:13.636Z,41.93
2019-02-06T22:04:40.495Z,41.63
2019-02-06T22:07:07.814Z,45.70
2019-02-06T22:09:34.853Z,46.30
2019-02-06T22:12:03.839Z,46.07
2019-02-06T22:14:31.875Z,45.90
2019-02-06T22:17:01.563Z,47.83
2019-02-06T22:19:28.614Z,48.00
2019-02-06T22:21:55.833Z,44.80
2019-02-06T22:24:22.691Z,45.70
2019-02-06T22:26:49.534Z,50.23
2019-02-06T22:29:16.533Z,46.10
2019-02-06T22:31:43.473Z,47.20
2019-02-06T22:34:10.949Z,48.17
2019-02-06T22:36:37.819Z,41.27
2019-02-06T22:39:09.704Z,46.20
2019-02-06T22:41:36.654Z,46.67
2019-02-06T22:44:06.580Z,50.73
2019-02-06T22:46:32.539Z,53.33
2019-02-06T22:48:59.403Z,48.77
2019-02-06T22:51:26.799Z,48.30
2019-02-06T22:53:53.688Z,50.73
2019-02-06T22:56:20.595Z,45.33
2019-02-06T22:58:48.843Z,48.40
2019-02-06T23:01:28.823Z,50.13
2019-02-06T23:03:55.803Z,50.70
2019-02-06T23:06:23.237Z,47.43
2019-02-06T23:08:50.499Z,48.43
2019-02-06T23:11:17.487Z,51.57
2019-02-06T23:13:44.650Z,50.53
2019-02-06T23:16:11.646Z,53.03
2019-02-06T23:18:38.505Z,52.73
2019-02-06T23:21:05.443Z,50.93
2019-02-06T23:23:32.665Z,48.60
2019-02-06T23:25:59.560Z,49.17
2019-02-06T23:28:26.519Z,55.13
2019-02-06T23:30:53.461Z,51.50
2019-02-06T23:33:20.396Z,49.50
2019-02-06T23:35:47.370Z,45.17
2019-02-06T23:38:14.339Z,51.30
2019-02-06T23:40:41.163Z,52.17
2019-02-06T23:43:08.155Z,53.60
2019-02-06T23:45:34.906Z,48.90
2019-02-06T23:48:01.745Z,44.00
2019-02-06T23:50:29.022Z,49.77
2019-02-06T23:52:55.959Z,47.63
2019-02-06T23:55:22.863Z,46.87
2019-02-06T23:57:49.696Z,50.53
